sensor_id;sensor_type;location;lat;lon;timestamp;pressure;altitude;pressure_sealevel;temperature;humidity
29371;BME280;16357;52.188;7.838;2023-09-07T00:00:30;101364.31;;;25.74;38.49
29371;BME280;16357;52.188;7.838;2023-09-07T00:02:56;101376.03;;;25.70;38.35
29371;BME280;16357;52.188;7.838;2023-09-07T00:05:23;101376.78;;;25.65;38.26
29371;BME280;16357;52.188;7.838;2023-09-07T00:07:49;101368.41;;;25.60;38.12
29371;BME280;16357;52.188;7.838;2023-09-07T00:10:16;101372.72;;;25.56;38.17
29371;BME280;16357;52.188;7.838;2023-09-07T00:12:44;101369.84;;;25.51;38.28
29371;BME280;16357;52.188;7.838;2023-09-07T00:15:10;101366.75;;;25.47;38.52
29371;BME280;16357;52.188;7.838;2023-09-07T00:17:36;101370.22;;;25.43;38.46
29371;BME280;16357;52.188;7.838;2023-09-07T00:20:03;101367.34;;;25.37;38.53
29371;BME280;16357;52.188;7.838;2023-09-07T00:22:37;101363.44;;;25.33;38.51
29371;BME280;16357;52.188;7.838;2023-09-07T00:25:04;101364.97;;;25.29;38.64
29371;BME280;16357;52.188;7.838;2023-09-07T00:27:33;101369.28;;;25.25;38.59
29371;BME280;16357;52.188;7.838;2023-09-07T00:30:00;101371.91;;;25.20;38.59
29371;BME280;16357;52.188;7.838;2023-09-07T00:32:26;101371.31;;;25.18;38.68
29371;BME280;16357;52.188;7.838;2023-09-07T00:34:52;101368.16;;;25.14;38.53
29371;BME280;16357;52.188;7.838;2023-09-07T00:37:19;101367.56;;;25.12;38.30
29371;BME280;16357;52.188;7.838;2023-09-07T00:39:45;101363.38;;;25.10;38.71
29371;BME280;16357;52.188;7.838;2023-09-07T00:42:11;101370.19;;;25.07;38.58
29371;BME280;16357;52.188;7.838;2023-09-07T00:44:38;101367.66;;;25.06;38.51
29371;BME280;16357;52.188;7.838;2023-09-07T00:47:04;101369.59;;;25.05;38.68
29371;BME280;16357;52.188;7.838;2023-09-07T00:49:31;101368.16;;;25.03;38.44
29371;BME280;16357;52.188;7.838;2023-09-07T00:51:58;101373.88;;;25.01;38.75
29371;BME280;16357;52.188;7.838;2023-09-07T00:54:25;101365.88;;;25.00;38.78
29371;BME280;16357;52.188;7.838;2023-09-07T00:56:51;101366.94;;;24.98;38.67
29371;BME280;16357;52.188;7.838;2023-09-07T00:59:17;101363.63;;;24.96;38.82
29371;BME280;16357;52.188;7.838;2023-09-07T01:01:44;101363.00;;;24.94;38.77
29371;BME280;16357;52.188;7.838;2023-09-07T01:04:10;101366.81;;;24.93;38.78
29371;BME280;16357;52.188;7.838;2023-09-07T01:06:39;101368.97;;;24.91;38.79
29371;BME280;16357;52.188;7.838;2023-09-07T01:09:11;101359.31;;;24.89;38.79
29371;BME280;16357;52.188;7.838;2023-09-07T01:11:40;101360.63;;;24.86;38.73
29371;BME280;16357;52.188;7.838;2023-09-07T01:14:07;101366.31;;;24.85;38.81
29371;BME280;16357;52.188;7.838;2023-09-07T01:16:33;101364.91;;;24.82;38.51
29371;BME280;16357;52.188;7.838;2023-09-07T01:19:01;101364.28;;;24.80;38.75
29371;BME280;16357;52.188;7.838;2023-09-07T01:21:37;101358.22;;;24.78;38.66
29371;BME280;16357;52.188;7.838;2023-09-07T01:24:10;101353.22;;;24.75;38.58
29371;BME280;16357;52.188;7.838;2023-09-07T01:26:37;101358.31;;;24.71;38.65
29371;BME280;16357;52.188;7.838;2023-09-07T01:29:07;101352.22;;;24.69;38.87
29371;BME280;16357;52.188;7.838;2023-09-07T01:31:37;101349.13;;;24.66;38.60
29371;BME280;16357;52.188;7.838;2023-09-07T01:34:05;101341.59;;;24.61;38.61
29371;BME280;16357;52.188;7.838;2023-09-07T01:36:32;101346.72;;;24.58;38.77
29371;BME280;16357;52.188;7.838;2023-09-07T01:38:58;101347.19;;;24.55;38.87
29371;BME280;16357;52.188;7.838;2023-09-07T01:41:25;101347.66;;;24.51;38.78
29371;BME280;16357;52.188;7.838;2023-09-07T01:43:51;101348.09;;;24.48;38.64
29371;BME280;16357;52.188;7.838;2023-09-07T01:46:18;101343.09;;;24.45;38.99
29371;BME280;16357;52.188;7.838;2023-09-07T01:48:44;101340.78;;;24.42;38.63
29371;BME280;16357;52.188;7.838;2023-09-07T01:51:11;101334.69;;;24.40;38.89
29371;BME280;16357;52.188;7.838;2023-09-07T01:53:37;101329.69;;;24.37;38.88
29371;BME280;16357;52.188;7.838;2023-09-07T01:56:03;101340.03;;;24.35;38.93
29371;BME280;16357;52.188;7.838;2023-09-07T01:58:30;101344.09;;;24.32;38.67
29371;BME280;16357;52.188;7.838;2023-09-07T02:00:58;101345.41;;;24.30;38.84
29371;BME280;16357;52.188;7.838;2023-09-07T02:03:25;101344.19;;;24.26;39.13
29371;BME280;16357;52.188;7.838;2023-09-07T02:05:52;101334.53;;;24.23;38.86
29371;BME280;16357;52.188;7.838;2023-09-07T02:08:18;101340.50;;;24.20;39.37
29371;BME280;16357;52.188;7.838;2023-09-07T02:10:45;101347.28;;;24.18;38.99
29371;BME280;16357;52.188;7.838;2023-09-07T02:13:11;101345.84;;;24.15;38.88
29371;BME280;16357;52.188;7.838;2023-09-07T02:15:38;101347.13;;;24.13;38.84
29371;BME280;16357;52.188;7.838;2023-09-07T02:18:05;101344.00;;;24.09;39.14
29371;BME280;16357;52.188;7.838;2023-09-07T02:20:32;101338.16;;;24.05;39.28
29371;BME280;16357;52.188;7.838;2023-09-07T02:22:59;101344.09;;;24.02;39.10
29371;BME280;16357;52.188;7.838;2023-09-07T02:25:25;101342.88;;;23.98;39.28
29371;BME280;16357;52.188;7.838;2023-09-07T02:27:53;101342.50;;;23.95;38.96
29371;BME280;16357;52.188;7.838;2023-09-07T02:30:20;101343.19;;;23.90;38.97
29371;BME280;16357;52.188;7.838;2023-09-07T02:32:46;101337.56;;;23.85;39.31
29371;BME280;16357;52.188;7.838;2023-09-07T02:35:12;101341.84;;;23.81;39.16
29371;BME280;16357;52.188;7.838;2023-09-07T02:37:39;101336.84;;;23.78;39.23
29371;BME280;16357;52.188;7.838;2023-09-07T02:40:05;101333.09;;;23.72;39.64
29371;BME280;16357;52.188;7.838;2023-09-07T02:42:35;101329.31;;;23.66;39.43
29371;BME280;16357;52.188;7.838;2023-09-07T02:45:01;101322.66;;;23.62;39.56
29371;BME280;16357;52.188;7.838;2023-09-07T02:47:27;101323.53;;;23.56;39.62
29371;BME280;16357;52.188;7.838;2023-09-07T02:49:54;101324.47;;;23.50;39.59
29371;BME280;16357;52.188;7.838;2023-09-07T02:52:20;101322.41;;;23.45;39.61
29371;BME280;16357;52.188;7.838;2023-09-07T02:54:46;101322.03;;;23.42;39.79
29371;BME280;16357;52.188;7.838;2023-09-07T02:57:13;101324.16;;;23.40;39.79
29371;BME280;16357;52.188;7.838;2023-09-07T02:59:39;101329.47;;;23.35;39.66
29371;BME280;16357;52.188;7.838;2023-09-07T03:02:05;101328.03;;;23.32;39.75
29371;BME280;16357;52.188;7.838;2023-09-07T03:04:33;101322.19;;;23.29;39.83
29371;BME280;16357;52.188;7.838;2023-09-07T03:07:02;101322.63;;;23.26;39.54
29371;BME280;16357;52.188;7.838;2023-09-07T03:09:29;101315.94;;;23.21;39.83
29371;BME280;16357;52.188;7.838;2023-09-07T03:11:55;101318.91;;;23.20;39.69
29371;BME280;16357;52.188;7.838;2023-09-07T03:14:21;101313.03;;;23.16;39.90
29371;BME280;16357;52.188;7.838;2023-09-07T03:16:48;101323.59;;;23.13;39.71
29371;BME280;16357;52.188;7.838;2023-09-07T03:19:16;101318.59;;;23.10;39.96
29371;BME280;16357;52.188;7.838;2023-09-07T03:21:43;101334.59;;;23.06;39.59
29371;BME280;16357;52.188;7.838;2023-09-07T03:24:10;101323.28;;;23.03;39.86
29371;BME280;16357;52.188;7.838;2023-09-07T03:26:36;101327.75;;;22.97;40.09
29371;BME280;16357;52.188;7.838;2023-09-07T03:29:02;101327.56;;;22.92;40.15
29371;BME280;16357;52.188;7.838;2023-09-07T03:31:29;101329.28;;;22.86;39.97
29371;BME280;16357;52.188;7.838;2023-09-07T03:33:56;101331.84;;;22.81;40.14
29371;BME280;16357;52.188;7.838;2023-09-07T03:36:22;101337.38;;;22.74;40.23
29371;BME280;16357;52.188;7.838;2023-09-07T03:38:49;101327.31;;;22.68;40.24
29371;BME280;16357;52.188;7.838;2023-09-07T03:41:15;101328.22;;;22.62;40.54
29371;BME280;16357;52.188;7.838;2023-09-07T03:43:42;101332.69;;;22.56;40.49
29371;BME280;16357;52.188;7.838;2023-09-07T03:46:08;101330.59;;;22.52;40.38
29371;BME280;16357;52.188;7.838;2023-09-07T03:48:35;101336.72;;;22.47;40.39
29371;BME280;16357;52.188;7.838;2023-09-07T03:51:05;101335.28;;;22.45;40.63
29371;BME280;16357;52.188;7.838;2023-09-07T03:53:32;101343.94;;;22.42;40.81
29371;BME280;16357;52.188;7.838;2023-09-07T03:55:58;101346.03;;;22.40;40.79
29371;BME280;16357;52.188;7.838;2023-09-07T03:58:24;101344.56;;;22.37;40.97
29371;BME280;16357;52.188;7.838;2023-09-07T04:00:51;101343.94;;;22.35;41.16
29371;BME280;16357;52.188;7.838;2023-09-07T04:03:17;101339.56;;;22.34;41.11
29371;BME280;16357;52.188;7.838;2023-09-07T04:05:44;101337.03;;;22.32;41.12
29371;BME280;16357;52.188;7.838;2023-09-07T04:08:10;101336.44;;;22.30;40.98
29371;BME280;16357;52.188;7.838;2023-09-07T04:10:37;101337.72;;;22.28;41.12
29371;BME280;16357;52.188;7.838;2023-09-07T04:13:04;101337.09;;;22.26;41.02
29371;BME280;16357;52.188;7.838;2023-09-07T04:15:32;101337.28;;;22.24;40.94
29371;BME280;16357;52.188;7.838;2023-09-07T04:17:59;101333.09;;;22.22;41.16
29371;BME280;16357;52.188;7.838;2023-09-07T04:20:25;101340.88;;;22.18;41.23
29371;BME280;16357;52.188;7.838;2023-09-07T04:22:54;101344.88;;;22.16;41.15
29371;BME280;16357;52.188;7.838;2023-09-07T04:25:20;101343.44;;;22.13;41.17
29371;BME280;16357;52.188;7.838;2023-09-07T04:27:47;101342.78;;;22.11;41.14
29371;BME280;16357;52.188;7.838;2023-09-07T04:30:13;101344.06;;;22.08;40.99
29371;BME280;16357;52.188;7.838;2023-09-07T04:32:39;101348.91;;;22.06;41.20
29371;BME280;16357;52.188;7.838;2023-09-07T04:35:06;101341.16;;;22.03;41.14
29371;BME280;16357;52.188;7.838;2023-09-07T04:37:33;101346.22;;;22.00;41.40
29371;BME280;16357;52.188;7.838;2023-09-07T04:39:59;101352.75;;;21.99;41.12
29371;BME280;16357;52.188;7.838;2023-09-07T04:42:26;101349.41;;;21.97;41.60
29371;BME280;16357;52.188;7.838;2023-09-07T04:44:53;101350.66;;;21.94;41.49
29371;BME280;16357;52.188;7.838;2023-09-07T04:47:19;101350.88;;;21.92;41.50
29371;BME280;16357;52.188;7.838;2023-09-07T04:49:49;101352.78;;;21.92;41.81
29371;BME280;16357;52.188;7.838;2023-09-07T04:52:16;101354.66;;;21.91;41.81
29371;BME280;16357;52.188;7.838;2023-09-07T04:54:43;101354.66;;;21.91;41.76
29371;BME280;16357;52.188;7.838;2023-09-07T04:57:09;101360.97;;;21.92;41.94
29371;BME280;16357;52.188;7.838;2023-09-07T04:59:35;101364.53;;;21.92;41.84
29371;BME280;16357;52.188;7.838;2023-09-07T05:02:02;101364.34;;;21.94;41.91
29371;BME280;16357;52.188;7.838;2023-09-07T05:04:28;101362.44;;;21.95;41.88
29371;BME280;16357;52.188;7.838;2023-09-07T05:06:56;101344.97;;;21.96;42.05
29371;BME280;16357;52.188;7.838;2023-09-07T05:09:22;101352.97;;;21.97;41.94
29371;BME280;16357;52.188;7.838;2023-09-07T05:11:50;101357.34;;;21.98;42.28
29371;BME280;16357;52.188;7.838;2023-09-07T05:14:16;101356.31;;;21.99;42.24
29371;BME280;16357;52.188;7.838;2023-09-07T05:16:42;101354.41;;;22.00;41.95
29371;BME280;16357;52.188;7.838;2023-09-07T05:19:09;101352.53;;;22.00;42.05
29371;BME280;16357;52.188;7.838;2023-09-07T05:21:54;101358.81;;;22.01;42.27
29371;BME280;16357;52.188;7.838;2023-09-07T05:24:21;101358.81;;;22.01;42.26
29371;BME280;16357;52.188;7.838;2023-09-07T05:26:47;101359.69;;;22.01;42.36
29371;BME280;16357;52.188;7.838;2023-09-07T05:29:13;101363.88;;;22.04;42.34
29371;BME280;16357;52.188;7.838;2023-09-07T05:31:40;101357.56;;;22.03;42.21
29371;BME280;16357;52.188;7.838;2023-09-07T05:34:06;101355.44;;;22.05;42.21
29371;BME280;16357;52.188;7.838;2023-09-07T05:36:32;101355.25;;;22.07;42.39
29371;BME280;16357;52.188;7.838;2023-09-07T05:38:59;101355.84;;;22.09;42.49
29371;BME280;16357;52.188;7.838;2023-09-07T05:41:25;101357.53;;;22.10;42.27
29371;BME280;16357;52.188;7.838;2023-09-07T05:43:52;101359.00;;;22.12;42.27
29371;BME280;16357;52.188;7.838;2023-09-07T05:46:18;101354.16;;;22.14;42.26
29371;BME280;16357;52.188;7.838;2023-09-07T05:48:44;101370.94;;;22.18;42.50
29371;BME280;16357;52.188;7.838;2023-09-07T05:51:11;101369.69;;;22.21;42.28
29371;BME280;16357;52.188;7.838;2023-09-07T05:53:38;101371.78;;;22.25;42.49
29371;BME280;16357;52.188;7.838;2023-09-07T05:56:04;101379.31;;;22.30;42.53
29371;BME280;16357;52.188;7.838;2023-09-07T05:58:31;101369.84;;;22.32;42.61
29371;BME280;16357;52.188;7.838;2023-09-07T06:00:57;101377.38;;;22.37;42.64
29371;BME280;16357;52.188;7.838;2023-09-07T06:03:24;101375.03;;;22.41;42.62
29371;BME280;16357;52.188;7.838;2023-09-07T06:05:50;101380.69;;;22.46;42.74
29371;BME280;16357;52.188;7.838;2023-09-07T06:08:17;101385.50;;;22.50;42.56
29371;BME280;16357;52.188;7.838;2023-09-07T06:10:43;101378.75;;;22.53;42.57
29371;BME280;16357;52.188;7.838;2023-09-07T06:13:10;101384.41;;;22.58;42.42
29371;BME280;16357;52.188;7.838;2023-09-07T06:15:36;101382.69;;;22.64;42.47
29371;BME280;16357;52.188;7.838;2023-09-07T06:18:02;101375.72;;;22.68;42.46
29371;BME280;16357;52.188;7.838;2023-09-07T06:20:29;101381.38;;;22.73;42.49
29371;BME280;16357;52.188;7.838;2023-09-07T06:22:56;101376.91;;;22.78;42.55
29371;BME280;16357;52.188;7.838;2023-09-07T06:25:22;101377.09;;;22.84;42.72
29371;BME280;16357;52.188;7.838;2023-09-07T06:27:49;101378.91;;;22.90;42.56
29371;BME280;16357;52.188;7.838;2023-09-07T06:30:15;101379.75;;;22.97;42.97
29371;BME280;16357;52.188;7.838;2023-09-07T06:32:41;101382.19;;;23.05;42.63
29371;BME280;16357;52.188;7.838;2023-09-07T06:35:08;101383.00;;;23.12;42.46
29371;BME280;16357;52.188;7.838;2023-09-07T06:37:36;101384.59;;;23.20;42.67
29371;BME280;16357;52.188;7.838;2023-09-07T06:40:06;101376.72;;;23.30;42.43
29371;BME280;16357;52.188;7.838;2023-09-07T06:42:33;101377.25;;;23.39;42.62
29371;BME280;16357;52.188;7.838;2023-09-07T06:44:59;101375.69;;;23.50;42.63
29371;BME280;16357;52.188;7.838;2023-09-07T06:47:26;101383.13;;;23.61;42.46
29371;BME280;16357;52.188;7.838;2023-09-07T06:49:56;101378.81;;;23.72;42.53
29371;BME280;16357;52.188;7.838;2023-09-07T06:52:22;101382.50;;;23.84;42.25
29371;BME280;16357;52.188;7.838;2023-09-07T06:54:51;101388.88;;;23.96;42.51
29371;BME280;16357;52.188;7.838;2023-09-07T06:57:17;101380.72;;;24.08;42.06
29371;BME280;16357;52.188;7.838;2023-09-07T06:59:43;101391.50;;;24.21;42.32
29371;BME280;16357;52.188;7.838;2023-09-07T07:02:10;101388.84;;;24.33;42.11
29371;BME280;16357;52.188;7.838;2023-09-07T07:04:36;101387.81;;;24.46;42.14
29371;BME280;16357;52.188;7.838;2023-09-07T07:07:03;101398.00;;;24.57;42.04
29371;BME280;16357;52.188;7.838;2023-09-07T07:09:30;101393.38;;;24.69;42.29
29371;BME280;16357;52.188;7.838;2023-09-07T07:11:58;101394.47;;;24.80;42.25
29371;BME280;16357;52.188;7.838;2023-09-07T07:14:25;101393.06;;;24.89;42.21
29371;BME280;16357;52.188;7.838;2023-09-07T07:16:51;101385.94;;;25.00;41.94
29371;BME280;16357;52.188;7.838;2023-09-07T07:19:18;101397.41;;;25.09;42.05
29371;BME280;16357;52.188;7.838;2023-09-07T07:21:48;101393.88;;;25.20;41.84
29371;BME280;16357;52.188;7.838;2023-09-07T07:24:14;101386.94;;;25.29;41.80
29371;BME280;16357;52.188;7.838;2023-09-07T07:26:40;101390.75;;;25.40;41.67
29371;BME280;16357;52.188;7.838;2023-09-07T07:29:07;101381.91;;;25.50;41.38
29371;BME280;16357;52.188;7.838;2023-09-07T07:31:43;101378.31;;;25.61;40.92
29371;BME280;16357;52.188;7.838;2023-09-07T07:34:09;101386.78;;;25.71;41.11
29371;BME280;16357;52.188;7.838;2023-09-07T07:36:36;101381.75;;;25.80;40.90
29371;BME280;16357;52.188;7.838;2023-09-07T07:39:02;101379.50;;;25.89;40.65
29371;BME280;16357;52.188;7.838;2023-09-07T07:41:29;101389.03;;;25.98;40.89
29371;BME280;16357;52.188;7.838;2023-09-07T07:43:56;101388.41;;;26.08;40.91
29371;BME280;16357;52.188;7.838;2023-09-07T07:46:22;101391.59;;;26.16;40.51
29371;BME280;16357;52.188;7.838;2023-09-07T07:48:48;101388.47;;;26.24;40.79
29371;BME280;16357;52.188;7.838;2023-09-07T07:51:15;101394.16;;;26.35;40.69
29371;BME280;16357;52.188;7.838;2023-09-07T07:53:41;101391.00;;;26.43;40.31
29371;BME280;16357;52.188;7.838;2023-09-07T07:56:14;101391.72;;;26.50;40.20
29371;BME280;16357;52.188;7.838;2023-09-07T07:58:41;101400.19;;;26.60;40.00
29371;BME280;16357;52.188;7.838;2023-09-07T08:01:14;101403.63;;;26.67;40.13
29371;BME280;16357;52.188;7.838;2023-09-07T08:03:41;101418.66;;;26.77;40.00
29371;BME280;16357;52.188;7.838;2023-09-07T08:06:08;101413.81;;;26.84;39.86
29371;BME280;16357;52.188;7.838;2023-09-07T08:08:34;101404.31;;;26.91;39.80
29371;BME280;16357;52.188;7.838;2023-09-07T08:11:01;101406.88;;;26.98;39.76
29371;BME280;16357;52.188;7.838;2023-09-07T08:13:32;101407.56;;;27.05;40.01
29371;BME280;16357;52.188;7.838;2023-09-07T08:16:00;101409.31;;;27.11;39.86
29371;BME280;16357;52.188;7.838;2023-09-07T08:18:27;101402.00;;;27.17;39.54
29371;BME280;16357;52.188;7.838;2023-09-07T08:20:54;101395.50;;;27.23;39.53
29371;BME280;16357;52.188;7.838;2023-09-07T08:23:21;101400.81;;;27.30;39.64
29371;BME280;16357;52.188;7.838;2023-09-07T08:25:52;101395.16;;;27.36;39.55
29371;BME280;16357;52.188;7.838;2023-09-07T08:28:18;101386.97;;;27.42;39.56
29371;BME280;16357;52.188;7.838;2023-09-07T08:30:45;101393.97;;;27.49;39.53
29371;BME280;16357;52.188;7.838;2023-09-07T08:33:11;101390.78;;;27.57;39.57
29371;BME280;16357;52.188;7.838;2023-09-07T08:35:38;101396.91;;;27.65;39.47
29371;BME280;16357;52.188;7.838;2023-09-07T08:38:10;101398.41;;;27.72;39.66
29371;BME280;16357;52.188;7.838;2023-09-07T08:40:38;101400.78;;;27.81;39.26
29371;BME280;16357;52.188;7.838;2023-09-07T08:43:07;101392.03;;;27.89;39.33
29371;BME280;16357;52.188;7.838;2023-09-07T08:45:36;101396.00;;;27.98;39.23
29371;BME280;16357;52.188;7.838;2023-09-07T08:48:04;101393.06;;;28.05;39.44
29371;BME280;16357;52.188;7.838;2023-09-07T08:50:30;101384.34;;;28.13;38.87
29371;BME280;16357;52.188;7.838;2023-09-07T08:52:57;101381.34;;;28.19;38.76
29371;BME280;16357;52.188;7.838;2023-09-07T08:55:25;101378.13;;;28.28;38.92
29371;BME280;16357;52.188;7.838;2023-09-07T08:57:52;101387.88;;;28.35;39.07
29371;BME280;16357;52.188;7.838;2023-09-07T09:00:18;101378.59;;;28.41;38.95
29371;BME280;16357;52.188;7.838;2023-09-07T09:02:46;101378.13;;;28.50;38.97
29371;BME280;16357;52.188;7.838;2023-09-07T09:05:21;101382.06;;;28.59;39.20
29371;BME280;16357;52.188;7.838;2023-09-07T09:07:48;101379.69;;;28.67;38.78
29371;BME280;16357;52.188;7.838;2023-09-07T09:10:17;101383.88;;;28.75;38.76
29371;BME280;16357;52.188;7.838;2023-09-07T09:12:46;101384.50;;;28.82;38.71
29371;BME280;16357;52.188;7.838;2023-09-07T09:15:15;101380.44;;;28.90;38.59
29371;BME280;16357;52.188;7.838;2023-09-07T09:17:42;101381.88;;;28.98;38.55
29371;BME280;16357;52.188;7.838;2023-09-07T09:20:21;101386.94;;;29.06;38.40
29371;BME280;16357;52.188;7.838;2023-09-07T09:22:50;101391.41;;;29.12;38.51
29371;BME280;16357;52.188;7.838;2023-09-07T09:25:16;101378.19;;;29.19;38.40
29371;BME280;16357;52.188;7.838;2023-09-07T09:27:43;101384.34;;;29.26;38.63
29371;BME280;16357;52.188;7.838;2023-09-07T09:30:09;101384.09;;;29.33;38.35
29371;BME280;16357;52.188;7.838;2023-09-07T09:32:35;101380.28;;;29.39;38.25
29371;BME280;16357;52.188;7.838;2023-09-07T09:35:03;101376.44;;;29.45;38.26
29371;BME280;16357;52.188;7.838;2023-09-07T09:37:29;101378.97;;;29.52;38.16
29371;BME280;16357;52.188;7.838;2023-09-07T09:39:55;101370.69;;;29.57;38.09
29371;BME280;16357;52.188;7.838;2023-09-07T09:42:23;101372.38;;;29.63;38.31
29371;BME280;16357;52.188;7.838;2023-09-07T09:44:50;101370.50;;;29.69;38.28
29371;BME280;16357;52.188;7.838;2023-09-07T09:47:16;101363.06;;;29.74;38.15
29371;BME280;16357;52.188;7.838;2023-09-07T09:49:44;101371.38;;;29.80;38.13
29371;BME280;16357;52.188;7.838;2023-09-07T09:52:11;101369.19;;;29.87;37.95
29371;BME280;16357;52.188;7.838;2023-09-07T09:54:39;101365.63;;;29.91;38.11
29371;BME280;16357;52.188;7.838;2023-09-07T09:57:06;101366.47;;;29.97;38.04
29371;BME280;16357;52.188;7.838;2023-09-07T09:59:32;101354.31;;;30.03;37.92
29371;BME280;16357;52.188;7.838;2023-09-07T10:02:00;101354.91;;;30.10;37.54
29371;BME280;16357;52.188;7.838;2023-09-07T10:04:27;101352.97;;;30.16;37.41
29371;BME280;16357;52.188;7.838;2023-09-07T10:06:57;101347.16;;;30.23;37.34
29371;BME280;16357;52.188;7.838;2023-09-07T10:09:28;101341.66;;;30.28;37.26
29371;BME280;16357;52.188;7.838;2023-09-07T10:11:57;101347.22;;;30.33;37.01
29371;BME280;16357;52.188;7.838;2023-09-07T10:14:23;101346.13;;;30.39;37.63
29371;BME280;16357;52.188;7.838;2023-09-07T10:16:50;101345.84;;;30.46;37.16
29371;BME280;16357;52.188;7.838;2023-09-07T10:19:20;101346.69;;;30.51;37.04
29371;BME280;16357;52.188;7.838;2023-09-07T10:21:47;101341.72;;;30.58;37.07
29371;BME280;16357;52.188;7.838;2023-09-07T10:24:23;101336.19;;;30.63;37.14
29371;BME280;16357;52.188;7.838;2023-09-07T10:29:23;101334.50;;;30.78;36.94
29371;BME280;16357;52.188;7.838;2023-09-07T10:31:52;101340.63;;;30.85;37.26
29371;BME280;16357;52.188;7.838;2023-09-07T10:34:20;101336.75;;;30.91;37.17
29371;BME280;16357;52.188;7.838;2023-09-07T10:36:47;101341.19;;;30.97;37.25
29371;BME280;16357;52.188;7.838;2023-09-07T10:39:14;101336.19;;;31.04;37.14
29371;BME280;16357;52.188;7.838;2023-09-07T10:41:44;101330.34;;;31.11;36.63
29371;BME280;16357;52.188;7.838;2023-09-07T10:44:10;101325.06;;;31.20;36.57
29371;BME280;16357;52.188;7.838;2023-09-07T10:46:38;101325.59;;;31.27;36.30
29371;BME280;16357;52.188;7.838;2023-09-07T10:49:06;101327.53;;;31.32;36.55
29371;BME280;16357;52.188;7.838;2023-09-07T10:51:33;101320.06;;;31.37;36.62
29371;BME280;16357;52.188;7.838;2023-09-07T10:53:59;101323.94;;;31.41;36.43
29371;BME280;16357;52.188;7.838;2023-09-07T10:56:26;101318.34;;;31.46;35.75
29371;BME280;16357;52.188;7.838;2023-09-07T10:58:53;101317.50;;;31.51;35.84
29371;BME280;16357;52.188;7.838;2023-09-07T11:01:20;101316.66;;;31.56;36.39
29371;BME280;16357;52.188;7.838;2023-09-07T11:03:46;101311.09;;;31.61;36.45
29371;BME280;16357;52.188;7.838;2023-09-07T11:06:14;101301.94;;;31.65;35.99
29371;BME280;16357;52.188;7.838;2023-09-07T11:08:41;101311.06;;;31.71;35.84
29371;BME280;16357;52.188;7.838;2023-09-07T11:11:08;101298.81;;;31.77;35.65
29371;BME280;16357;52.188;7.838;2023-09-07T11:13:34;101301.56;;;31.82;36.05
29371;BME280;16357;52.188;7.838;2023-09-07T11:16:02;101297.63;;;31.88;35.89
29371;BME280;16357;52.188;7.838;2023-09-07T11:18:29;101304.31;;;31.92;35.60
29371;BME280;16357;52.188;7.838;2023-09-07T11:20:55;101298.19;;;31.96;35.54
29371;BME280;16357;52.188;7.838;2023-09-07T11:23:22;101295.13;;;31.97;35.54
29371;BME280;16357;52.188;7.838;2023-09-07T11:25:50;101291.47;;;32.02;35.91
29371;BME280;16357;52.188;7.838;2023-09-07T11:28:18;101300.34;;;32.04;35.81
29371;BME280;16357;52.188;7.838;2023-09-07T11:30:48;101290.34;;;32.08;35.85
29371;BME280;16357;52.188;7.838;2023-09-07T11:33:15;101286.97;;;32.11;35.67
29371;BME280;16357;52.188;7.838;2023-09-07T11:35:42;101285.31;;;32.15;35.82
29371;BME280;16357;52.188;7.838;2023-09-07T11:38:08;101285.25;;;32.20;35.70
29371;BME280;16357;52.188;7.838;2023-09-07T11:40:38;101280.50;;;32.26;35.71
29371;BME280;16357;52.188;7.838;2023-09-07T11:43:04;101281.56;;;32.30;35.53
29371;BME280;16357;52.188;7.838;2023-09-07T11:45:31;101277.94;;;32.34;35.40
29371;BME280;16357;52.188;7.838;2023-09-07T11:47:58;101275.38;;;32.38;35.01
29371;BME280;16357;52.188;7.838;2023-09-07T11:50:25;101282.84;;;32.43;34.61
29371;BME280;16357;52.188;7.838;2023-09-07T11:52:51;101278.41;;;32.47;34.77
29371;BME280;16357;52.188;7.838;2023-09-07T11:55:18;101279.47;;;32.51;35.01
29371;BME280;16357;52.188;7.838;2023-09-07T11:57:45;101272.25;;;32.55;34.80
29371;BME280;16357;52.188;7.838;2023-09-07T12:00:12;101270.25;;;32.61;34.39
29371;BME280;16357;52.188;7.838;2023-09-07T12:02:38;101268.25;;;32.66;34.48
29371;BME280;16357;52.188;7.838;2023-09-07T12:05:06;101269.84;;;32.72;34.89
29371;BME280;16357;52.188;7.838;2023-09-07T12:07:36;101267.84;;;32.78;34.85
29371;BME280;16357;52.188;7.838;2023-09-07T12:10:02;101265.53;;;32.85;34.86
29371;BME280;16357;52.188;7.838;2023-09-07T12:12:29;101256.88;;;32.92;34.75
29371;BME280;16357;52.188;7.838;2023-09-07T12:14:55;101253.19;;;32.96;33.29
29371;BME280;16357;52.188;7.838;2023-09-07T12:17:22;101251.22;;;33.02;34.08
29371;BME280;16357;52.188;7.838;2023-09-07T12:19:49;101248.69;;;33.06;34.57
29371;BME280;16357;52.188;7.838;2023-09-07T12:22:16;101253.38;;;33.10;33.52
29371;BME280;16357;52.188;7.838;2023-09-07T12:24:43;101240.50;;;33.14;34.13
29371;BME280;16357;52.188;7.838;2023-09-07T12:27:09;101251.03;;;33.17;33.95
29371;BME280;16357;52.188;7.838;2023-09-07T12:29:36;101245.72;;;33.21;33.53
29371;BME280;16357;52.188;7.838;2023-09-07T12:32:02;101251.81;;;33.23;33.55
29371;BME280;16357;52.188;7.838;2023-09-07T12:34:29;101255.44;;;33.23;33.80
29371;BME280;16357;52.188;7.838;2023-09-07T12:36:58;101251.22;;;33.26;33.32
29371;BME280;16357;52.188;7.838;2023-09-07T12:39:24;101252.03;;;33.27;33.46
29371;BME280;16357;52.188;7.838;2023-09-07T12:41:51;101248.94;;;33.28;33.17
29371;BME280;16357;52.188;7.838;2023-09-07T12:44:17;101240.59;;;33.28;33.20
29371;BME280;16357;52.188;7.838;2023-09-07T12:46:44;101241.97;;;33.31;33.43
29371;BME280;16357;52.188;7.838;2023-09-07T12:49:10;101235.84;;;33.34;33.38
29371;BME280;16357;52.188;7.838;2023-09-07T12:51:37;101240.78;;;33.37;33.53